Time;durP1;ratioP1;P1;durP2;ratioP2;P2;SDS_P1;SDS_P2;PMS_P1;PMS_P2;Temp;Humidity;BMP_temperature;BMP_pressure;BME280_temperature;BME280_humidity;BME280_pressure;Samples;Min_cycle;Max_cycle;Signal;HPM_P1;HPM_P2
2021/10/08 00:00:05;;;;;;;;;;;;;;;8.01;79.68;100934.59;5030952;28;19923;-72
2021/10/08 00:02:30;;;;;;;;;;;;;;;8.01;79.59;100934.59;5030448;28;20000;-70
2021/10/08 00:04:55;;;;;;;;;;;;;;;8.06;80.39;100939.75;5030943;28;19913;-72
2021/10/08 00:07:21;;;;;;;;;;;;;;;8.10;79.56;100939.66;5031303;28;19920;-71
2021/10/08 00:09:46;;;;;;;;;;;;;;;8.07;79.48;100933.59;5030949;28;19975;-73
2021/10/08 00:12:11;;;;;;;;;;;;;;;7.99;79.08;100938.13;5028920;28;19987;-72
2021/10/08 00:14:36;;;;;;;;;;;;;;;7.98;79.75;100944.31;5029946;28;19920;-72
2021/10/08 00:17:02;;;;;;;;;;;;;;;7.92;79.64;100942.63;5030944;28;19913;-73
2021/10/08 00:19:27;;;;;;;;;;;;;;;7.92;80.16;100935.63;5029894;28;20266;-73
2021/10/08 00:21:52;;;;;;;;;;;;;;;7.95;79.51;100939.97;5031097;28;19913;-73
2021/10/08 00:24:17;;;;;;;;;;;;;;;7.89;79.73;100940.94;5031703;28;20330;-73
2021/10/08 00:26:43;;;;;;;;;;;;;;;7.83;79.64;100943.69;5033491;28;21314;-72
2021/10/08 00:29:09;;;;;;;;;;;;;;;7.79;80.06;100952.53;5034173;28;19921;-73
2021/10/08 00:31:34;;;;;;;;;;;;;;;7.79;79.78;100954.28;5036939;28;20011;-74
2021/10/08 00:33:59;;;;;;;;;;;;;;;7.75;79.93;100956.09;5031772;28;20013;-72
2021/10/08 00:36:24;;;;;;;;;;;;;;;7.73;80.00;100950.03;5032720;28;19920;-74
2021/10/08 00:38:50;;;;;;;;;;;;;;;7.71;80.15;100955.28;5033223;28;19917;-73
2021/10/08 00:41:15;;;;;;;;;;;;;;;7.67;80.66;100953.63;5031974;28;19971;-74
2021/10/08 00:43:40;;;;;;;;;;;;;;;7.74;80.68;100957.84;5034098;28;19993;-73
2021/10/08 00:46:05;;;;;;;;;;;;;;;7.81;80.10;100956.00;5031963;28;19948;-74
2021/10/08 00:48:31;;;;;;;;;;;;;;;7.86;79.96;100958.53;5029729;28;20372;-72
2021/10/08 00:50:56;;;;;;;;;;;;;;;7.82;79.36;100965.59;5028843;28;20361;-74
2021/10/08 00:53:21;;;;;;;;;;;;;;;7.77;79.87;100964.81;5030142;28;19920;-73
2021/10/08 00:55:48;;;;;;;;;;;;;;;7.72;79.57;100961.41;5030087;28;19912;-73
2021/10/08 00:58:14;;;;;;;;;;;;;;;7.71;79.62;100962.31;5030500;28;19913;-72
2021/10/08 01:00:41;;;;;;;;;;;;;;;7.70;80.26;100957.94;5006388;28;19970;-71
2021/10/08 01:03:07;;;;;;;;;;;;;;;7.67;80.03;100960.63;5029603;28;19913;-71
2021/10/08 01:05:32;;;;;;;;;;;;;;;7.64;80.29;100961.56;5028389;28;19920;-72
2021/10/08 01:10:33;;;;;;;;;;;;;;;7.68;79.48;100959.75;5421653;22;19926;-71
2021/10/08 01:13:01;;;;;;;;;;;;;;;7.65;79.39;100957.16;5002267;28;19964;-70
2021/10/08 01:15:27;;;;;;;;;;;;;;;7.62;79.92;100952.84;4994729;28;19975;-71
2021/10/08 01:17:53;;;;;;;;;;;;;;;7.63;80.20;100956.31;4990054;28;20376;-72
2021/10/08 01:20:18;;;;;;;;;;;;;;;7.60;80.46;100948.50;4997977;28;20288;-71
2021/10/08 01:22:43;;;;;;;;;;;;;;;7.59;80.00;100957.28;5010051;28;19917;-73
2021/10/08 01:25:08;;;;;;;;;;;;;;;7.50;79.97;100948.66;5007123;28;19914;-71
2021/10/08 01:27:35;;;;;;;;;;;;;;;7.47;80.37;100948.72;5009593;28;19917;-73
2021/10/08 01:30:02;;;;;;;;;;;;;;;7.44;80.62;100951.41;5007691;28;19928;-72
2021/10/08 01:32:28;;;;;;;;;;;;;;;7.49;80.10;100946.94;5008458;28;19913;-72
2021/10/08 01:34:53;;;;;;;;;;;;;;;7.47;80.03;100943.47;5009503;28;20272;-72
2021/10/08 01:37:19;;;;;;;;;;;;;;;7.47;80.46;100945.25;5010492;28;19925;-72
2021/10/08 01:39:45;;;;;;;;;;;;;;;7.46;79.83;100948.78;5009060;28;20004;-73
2021/10/08 01:42:11;;;;;;;;;;;;;;;7.45;79.69;100947.03;5009511;28;19924;-72
2021/10/08 01:44:36;;;;;;;;;;;;;;;7.41;80.00;100945.34;5009833;28;19921;-73
2021/10/08 01:47:02;;;;;;;;;;;;;;;7.39;80.26;100953.25;5009618;28;20295;-72
2021/10/08 01:49:27;;;;;;;;;;;;;;;7.37;80.29;100944.53;5008829;28;19921;-72
2021/10/08 01:51:52;;;;;;;;;;;;;;;7.31;79.91;100945.53;5009641;28;20032;-72
2021/10/08 01:54:18;;;;;;;;;;;;;;;7.23;80.53;100949.16;5009393;28;19929;-73
2021/10/08 01:56:46;;;;;;;;;;;;;;;7.20;80.59;100957.06;5009929;28;19959;-73
2021/10/08 01:59:12;;;;;;;;;;;;;;;7.20;80.48;100952.69;5006793;28;19913;-73
2021/10/08 02:01:37;;;;;;;;;;;;;;;7.21;80.20;100956.16;5010665;28;20302;-73
2021/10/08 02:04:03;;;;;;;;;;;;;;;7.16;80.54;100943.16;5012770;28;19937;-73
2021/10/08 02:06:28;;;;;;;;;;;;;;;7.15;80.28;100948.41;5016545;28;19917;-72
2021/10/08 02:08:53;;;;;;;;;;;;;;;7.13;80.23;100953.69;5015566;28;19924;-73
2021/10/08 02:11:19;;;;;;;;;;;;;;;7.13;80.35;100945.81;5011655;28;19932;-73
2021/10/08 02:13:44;;;;;;;;;;;;;;;7.11;80.02;100947.59;5014229;28;20435;-72
2021/10/08 02:16:09;;;;;;;;;;;;;;;7.11;80.45;100952.84;5013649;28;19924;-73
2021/10/08 02:18:34;;;;;;;;;;;;;;;7.08;80.32;100956.38;5013062;28;19948;-73
2021/10/08 02:21:00;;;;;;;;;;;;;;;7.09;80.53;100952.03;5012477;28;19924;-73
2021/10/08 02:23:25;;;;;;;;;;;;;;;7.07;80.33;100954.66;5013131;28;20388;-72
2021/10/08 02:25:50;;;;;;;;;;;;;;;7.10;80.18;100959.84;5012330;28;19967;-72
2021/10/08 02:28:15;;;;;;;;;;;;;;;7.07;80.16;100957.28;5013564;28;20008;-73
2021/10/08 02:30:40;;;;;;;;;;;;;;;7.10;80.53;100957.22;5011969;28;19917;-72
2021/10/08 02:33:06;;;;;;;;;;;;;;;7.13;80.08;100958.06;5012768;28;20350;-74
2021/10/08 02:35:31;;;;;;;;;;;;;;;7.10;79.87;100959.84;5011578;28;20416;-73
2021/10/08 02:37:56;;;;;;;;;;;;;;;7.06;80.32;100955.56;5012818;28;19920;-72
2021/10/08 02:40:21;;;;;;;;;;;;;;;7.13;80.28;100955.44;5011831;28;19920;-72
2021/10/08 02:42:47;;;;;;;;;;;;;;;7.16;79.63;100960.63;5012989;28;19992;-73
2021/10/08 02:45:12;;;;;;;;;;;;;;;7.09;80.07;100967.75;5012777;28;19929;-73
2021/10/08 02:47:38;;;;;;;;;;;;;;;7.11;80.52;100965.94;5009678;28;19913;-72
2021/10/08 02:50:03;;;;;;;;;;;;;;;7.11;80.11;100971.19;5011425;28;19917;-72
2021/10/08 02:52:28;;;;;;;;;;;;;;;7.05;79.89;100953.81;5012481;28;19959;-73
2021/10/08 02:54:56;;;;;;;;;;;;;;;7.00;80.29;100955.63;5012366;28;20283;-73
2021/10/08 02:57:21;;;;;;;;;;;;;;;7.05;80.25;100950.31;5012293;28;20372;-73
2021/10/08 02:59:47;;;;;;;;;;;;;;;7.09;80.54;100952.03;5010602;28;19913;-73
2021/10/08 03:02:12;;;;;;;;;;;;;;;7.08;80.58;100948.50;5012927;28;19920;-73
2021/10/08 03:04:37;;;;;;;;;;;;;;;7.06;80.18;100949.41;5012683;28;19913;-73
2021/10/08 03:07:02;;;;;;;;;;;;;;;7.06;80.26;100947.69;5012041;28;19921;-72
2021/10/08 03:09:28;;;;;;;;;;;;;;;7.09;79.86;100952.03;5010753;28;19926;-73
2021/10/08 03:11:53;;;;;;;;;;;;;;;7.05;79.54;100945.94;5010704;28;19921;-73
2021/10/08 03:14:18;;;;;;;;;;;;;;;6.97;79.71;100949.59;5008238;28;20273;-73
2021/10/08 03:16:43;;;;;;;;;;;;;;;7.05;80.19;100947.69;5011227;28;19914;-73
2021/10/08 03:19:09;;;;;;;;;;;;;;;7.02;79.33;100945.13;5011374;28;19917;-73
2021/10/08 03:21:34;;;;;;;;;;;;;;;6.97;79.86;100950.44;5011812;28;19913;-72
2021/10/08 03:23:59;;;;;;;;;;;;;;;7.00;79.83;100949.53;5012161;28;19917;-73
2021/10/08 03:26:24;;;;;;;;;;;;;;;6.98;79.91;100951.31;5011655;28;20300;-73
2021/10/08 03:28:50;;;;;;;;;;;;;;;6.95;79.98;100951.38;5011434;28;19917;-72
2021/10/08 03:31:15;;;;;;;;;;;;;;;6.88;79.95;100947.97;5010963;28;19917;-72
2021/10/08 03:33:40;;;;;;;;;;;;;;;6.84;79.98;100948.88;5009790;28;19913;-72
2021/10/08 03:36:08;;;;;;;;;;;;;;;6.80;80.02;100944.59;5010643;28;19927;-72
2021/10/08 03:38:35;;;;;;;;;;;;;;;6.74;79.77;100945.53;5009967;28;19914;-72
2021/10/08 03:43:28;;;;;;;;;;;;;;;6.71;80.25;100949.97;5010382;28;19913;-72
2021/10/08 03:45:54;;;;;;;;;;;;;;;6.69;79.99;100955.22;5003274;28;19920;-71
2021/10/08 03:48:58;;;;;;;;;;;;;;;6.70;80.02;100954.34;5011415;28;19913;-73
2021/10/08 03:51:17;;;;;;;;;;;;;;;6.68;79.97;100950.03;4991822;28;19917;-72
2021/10/08 03:53:43;;;;;;;;;;;;;;;6.68;80.10;100956.13;5012024;28;19919;-71
2021/10/08 03:56:08;;;;;;;;;;;;;;;6.71;80.25;100957.84;5010978;28;19913;-72
2021/10/08 03:58:33;;;;;;;;;;;;;;;6.73;80.13;100956.06;4993864;28;19914;-72
2021/10/08 04:00:58;;;;;;;;;;;;;;;6.70;80.14;100959.59;5009296;28;19989;-72
2021/10/08 04:03:24;;;;;;;;;;;;;;;6.71;80.00;100968.31;5011381;28;19920;-73
2021/10/08 04:05:49;;;;;;;;;;;;;;;6.72;80.13;100964.78;5003197;28;19916;-73
2021/10/08 04:08:14;;;;;;;;;;;;;;;6.71;79.60;100963.94;5010404;28;19913;-73
2021/10/08 04:10:42;;;;;;;;;;;;;;;6.67;79.48;100962.25;5007723;28;19921;-72
2021/10/08 04:13:07;;;;;;;;;;;;;;;6.65;79.66;100962.28;4986029;28;19921;-73
2021/10/08 04:15:32;;;;;;;;;;;;;;;6.61;79.51;100957.97;5011244;28;19917;-72
2021/10/08 04:17:58;;;;;;;;;;;;;;;6.58;79.61;100959.75;5010358;28;19922;-71
2021/10/08 04:20:23;;;;;;;;;;;;;;;6.57;79.96;100963.25;5009766;28;19924;-71
2021/10/08 04:22:48;;;;;;;;;;;;;;;6.52;79.59;100971.22;5011253;28;19992;-73
2021/10/08 04:25:13;;;;;;;;;;;;;;;6.50;80.00;100965.13;5011672;28;19917;-72
2021/10/08 04:27:39;;;;;;;;;;;;;;;6.53;80.18;100967.69;5008160;28;19920;-73
2021/10/08 04:30:04;;;;;;;;;;;;;;;6.56;80.17;100969.41;5010456;28;19917;-73
2021/10/08 04:32:30;;;;;;;;;;;;;;;6.58;80.22;100959.75;5010690;28;20300;-72
2021/10/08 04:34:55;;;;;;;;;;;;;;;6.59;79.97;100966.72;5009846;28;19959;-73
2021/10/08 04:37:20;;;;;;;;;;;;;;;6.60;80.01;100969.34;5010653;28;19914;-73
2021/10/08 04:39:45;;;;;;;;;;;;;;;6.62;80.11;100962.31;5010534;28;19914;-72
2021/10/08 04:42:11;;;;;;;;;;;;;;;6.58;79.88;100975.50;5009540;28;19913;-72
2021/10/08 04:44:36;;;;;;;;;;;;;;;6.51;80.48;100973.84;5011176;28;19925;-72
2021/10/08 04:47:02;;;;;;;;;;;;;;;6.51;80.81;100969.47;5011587;28;19913;-73
2021/10/08 04:49:27;;;;;;;;;;;;;;;6.51;80.68;100966.84;5009370;28;19979;-72
2021/10/08 04:51:52;;;;;;;;;;;;;;;6.55;80.61;100968.53;5009569;28;19913;-72
2021/10/08 04:54:17;;;;;;;;;;;;;;;6.57;80.52;100971.13;5002497;28;19936;-71
2021/10/08 04:56:43;;;;;;;;;;;;;;;6.58;80.08;100972.88;5009220;28;19914;-73
2021/10/08 04:59:08;;;;;;;;;;;;;;;6.57;80.14;100972.00;5009585;28;19921;-73
2021/10/08 05:01:33;;;;;;;;;;;;;;;6.54;79.74;100971.16;5009170;28;19914;-73
2021/10/08 05:03:59;;;;;;;;;;;;;;;6.52;79.57;100973.81;5006857;28;19914;-73
2021/10/08 05:06:24;;;;;;;;;;;;;;;6.48;79.90;100979.97;5009426;28;19956;-73
2021/10/08 05:08:49;;;;;;;;;;;;;;;6.38;79.74;100970.50;5010115;28;19967;-72
2021/10/08 05:11:15;;;;;;;;;;;;;;;6.26;80.07;100976.78;5007145;28;19929;-73
2021/10/08 05:13:41;;;;;;;;;;;;;;;6.18;80.21;100981.25;5010037;28;19948;-73
2021/10/08 05:16:06;;;;;;;;;;;;;;;6.17;80.67;100982.09;5009112;28;21497;-73
2021/10/08 05:18:31;;;;;;;;;;;;;;;6.19;80.87;100983.81;5007361;28;20372;-72
2021/10/08 05:20:56;;;;;;;;;;;;;;;6.21;80.38;100978.56;5007674;28;19910;-72
2021/10/08 05:23:22;;;;;;;;;;;;;;;6.23;80.89;100982.06;5009805;28;20000;-72
2021/10/08 05:25:47;;;;;;;;;;;;;;;6.27;81.09;100982.88;5009552;28;20013;-72
2021/10/08 05:28:13;;;;;;;;;;;;;;;6.31;80.66;100989.81;5010234;28;19920;-73
2021/10/08 05:30:38;;;;;;;;;;;;;;;6.32;80.60;100988.91;5023691;28;20016;-73
2021/10/08 05:33:03;;;;;;;;;;;;;;;6.37;80.43;100987.09;5009236;28;19913;-72
2021/10/08 05:35:28;;;;;;;;;;;;;;;6.40;80.36;100989.72;5009875;28;19913;-72
2021/10/08 05:37:54;;;;;;;;;;;;;;;6.40;80.27;100994.94;5010040;28;19917;-72
2021/10/08 05:40:19;;;;;;;;;;;;;;;6.40;80.21;100990.56;5015564;28;20296;-73
2021/10/08 05:42:44;;;;;;;;;;;;;;;6.39;80.43;100996.66;5018008;28;19918;-72
2021/10/08 05:45:10;;;;;;;;;;;;;;;6.36;80.15;100988.00;5016429;28;19969;-72
2021/10/08 05:47:35;;;;;;;;;;;;;;;6.31;79.84;100992.44;5017375;28;20365;-74
2021/10/08 05:50:00;;;;;;;;;;;;;;;6.25;80.00;100990.72;5017805;28;19917;-72
2021/10/08 05:52:26;;;;;;;;;;;;;;;6.22;80.39;101001.25;5018338;28;19913;-74
2021/10/08 05:54:51;;;;;;;;;;;;;;;6.21;80.43;100999.53;5017598;28;20006;-74
2021/10/08 05:57:16;;;;;;;;;;;;;;;6.19;80.40;100999.53;5016210;28;20651;-71
2021/10/08 05:59:41;;;;;;;;;;;;;;;6.16;80.88;101001.34;5014698;28;20408;-74
2021/10/08 06:02:07;;;;;;;;;;;;;;;6.18;80.52;100999.56;5015730;28;20384;-72
2021/10/08 06:04:32;;;;;;;;;;;;;;;6.20;80.25;100992.53;5015238;28;19913;-72
2021/10/08 06:06:57;;;;;;;;;;;;;;;6.22;80.62;101001.25;5015818;28;20403;-75
2021/10/08 06:09:23;;;;;;;;;;;;;;;6.24;80.52;100995.09;5014412;28;20000;-71
2021/10/08 06:11:48;;;;;;;;;;;;;;;6.29;80.09;101000.28;5018600;28;19956;-72
2021/10/08 06:14:13;;;;;;;;;;;;;;;6.33;80.21;101001.13;5014585;28;19913;-71
2021/10/08 06:16:38;;;;;;;;;;;;;;;6.36;80.34;101007.19;5015710;28;19913;-72
2021/10/08 06:19:04;;;;;;;;;;;;;;;6.42;80.38;101006.25;5015594;28;19914;-72
2021/10/08 06:21:29;;;;;;;;;;;;;;;6.47;80.82;101004.44;5013353;28;19917;-72
2021/10/08 06:23:54;;;;;;;;;;;;;;;6.50;80.55;100996.56;5014475;28;19915;-72
2021/10/08 06:26:19;;;;;;;;;;;;;;;6.54;80.47;101008.69;5015952;28;20709;-71
2021/10/08 06:28:45;;;;;;;;;;;;;;;6.59;80.72;101006.88;5016104;28;19944;-72
2021/10/08 06:31:10;;;;;;;;;;;;;;;6.66;80.49;101007.69;5015248;28;19924;-72
2021/10/08 06:33:35;;;;;;;;;;;;;;;6.69;80.78;101014.63;5015287;28;19924;-72
2021/10/08 06:36:01;;;;;;;;;;;;;;;6.72;80.45;101006.72;5019641;28;19914;-73
2021/10/08 06:38:26;;;;;;;;;;;;;;;6.75;80.45;101012.81;5022212;28;20389;-73
2021/10/08 06:40:51;;;;;;;;;;;;;;;6.76;80.67;101016.28;5019605;28;20444;-71
2021/10/08 06:43:17;;;;;;;;;;;;;;;6.82;80.54;101001.34;5016232;28;19920;-73
2021/10/08 06:45:42;;;;;;;;;;;;;;;6.87;80.86;101007.38;5016783;28;19913;-72
2021/10/08 06:48:07;;;;;;;;;;;;;;;6.95;80.57;101004.66;5012039;28;20008;-73
2021/10/08 06:50:32;;;;;;;;;;;;;;;7.05;80.62;101014.13;5011392;28;19944;-72
2021/10/08 06:52:58;;;;;;;;;;;;;;;7.14;80.49;101010.50;5012273;28;19921;-74
2021/10/08 06:55:23;;;;;;;;;;;;;;;7.19;80.43;101013.91;5012289;28;20455;-72
2021/10/08 06:57:48;;;;;;;;;;;;;;;7.29;80.62;101014.63;5012315;28;20369;-71
2021/10/08 07:00:14;;;;;;;;;;;;;;;7.38;80.33;101008.34;5011829;28;19924;-72
2021/10/08 07:02:52;;;;;;;;;;;;;;;7.47;80.10;101009.06;5011054;28;20415;-73
2021/10/08 07:05:18;;;;;;;;;;;;;;;7.53;79.58;101008.09;5012130;28;19913;-73
2021/10/08 07:07:44;;;;;;;;;;;;;;;7.57;79.44;101009.78;5010875;28;20000;-72
2021/10/08 07:10:09;;;;;;;;;;;;;;;7.67;80.20;101005.25;5008061;28;20007;-72
2021/10/08 07:12:35;;;;;;;;;;;;;;;7.77;80.05;100998.94;5009913;28;19917;-74
2021/10/08 07:15:01;;;;;;;;;;;;;;;7.88;80.20;101010.13;5012209;28;20347;-72
2021/10/08 07:17:28;;;;;;;;;;;;;;;8.00;79.72;101009.03;5012147;28;19969;-73
2021/10/08 07:19:54;;;;;;;;;;;;;;;8.13;80.18;101007.88;5011190;28;19913;-72
2021/10/08 07:22:19;;;;;;;;;;;;;;;8.25;79.85;101014.66;5012062;28;20439;-72
2021/10/08 07:24:45;;;;;;;;;;;;;;;8.36;79.03;101015.28;5012083;28;20005;-70
2021/10/08 07:27:10;;;;;;;;;;;;;;;8.45;78.79;101011.66;5026921;28;20018;-72
2021/10/08 07:29:36;;;;;;;;;;;;;;;8.54;78.61;101013.22;5008970;28;19917;-73
2021/10/08 07:32:02;;;;;;;;;;;;;;;8.63;79.45;101012.16;5011001;28;19913;-72
2021/10/08 07:34:28;;;;;;;;;;;;;;;8.74;78.66;101016.31;5010062;28;19913;-71
2021/10/08 07:36:53;;;;;;;;;;;;;;;8.88;78.57;101010.72;5011301;28;20289;-70
2021/10/08 07:39:18;;;;;;;;;;;;;;;9.02;78.36;101013.03;5009321;28;19928;-72
2021/10/08 07:41:45;;;;;;;;;;;;;;;9.15;78.22;101013.63;5010341;28;19913;-73
2021/10/08 07:44:10;;;;;;;;;;;;;;;9.24;77.71;101013.41;5011057;28;20097;-73
2021/10/08 07:46:35;;;;;;;;;;;;;;;9.40;77.49;101014.78;5011420;28;20348;-73
2021/10/08 07:49:01;;;;;;;;;;;;;;;9.52;77.99;101013.59;5011424;28;19928;-71
2021/10/08 07:51:26;;;;;;;;;;;;;;;9.65;76.98;101017.66;5010011;28;19924;-73
2021/10/08 07:53:51;;;;;;;;;;;;;;;9.80;77.10;101012.91;5011402;28;19913;-73
2021/10/08 07:56:16;;;;;;;;;;;;;;;9.92;76.56;101014.31;5011177;28;19941;-74
2021/10/08 07:58:42;;;;;;;;;;;;;;;10.08;76.92;101015.63;5010104;28;20364;-71
2021/10/08 08:01:07;;;;;;;;;;;;;;;10.25;76.18;101005.50;5008120;28;19933;-73
2021/10/08 08:03:32;;;;;;;;;;;;;;;10.38;75.98;101013.94;5010484;28;19948;-73
2021/10/08 08:05:58;;;;;;;;;;;;;;;10.53;75.91;101013.53;5010654;28;19917;-73
2021/10/08 08:08:23;;;;;;;;;;;;;;;10.68;75.45;101019.22;5013108;28;20421;-74
2021/10/08 08:10:49;;;;;;;;;;;;;;;10.81;75.46;101017.09;5014742;28;19971;-73
2021/10/08 08:13:14;;;;;;;;;;;;;;;10.93;75.00;101014.94;5014893;28;19968;-72
2021/10/08 08:15:39;;;;;;;;;;;;;;;11.09;74.70;101017.94;5014042;28;19928;-71
2021/10/08 08:18:05;;;;;;;;;;;;;;;11.24;74.22;101019.25;5011677;28;20062;-72
2021/10/08 08:20:30;;;;;;;;;;;;;;;11.40;73.92;101019.63;5001336;28;20257;-72
2021/10/08 08:22:55;;;;;;;;;;;;;;;11.56;72.96;101017.31;5022426;28;19913;-73
2021/10/08 08:25:21;;;;;;;;;;;;;;;11.68;73.25;101013.41;5009669;28;19920;-72
2021/10/08 08:27:46;;;;;;;;;;;;;;;11.85;72.73;101008.41;5010256;28;20400;-71
2021/10/08 08:30:11;;;;;;;;;;;;;;;12.03;71.90;101013.09;5005878;28;19940;-73
2021/10/08 08:32:37;;;;;;;;;;;;;;;12.19;71.30;101010.75;5010785;28;19913;-73
2021/10/08 08:35:03;;;;;;;;;;;;;;;12.35;71.36;101007.53;5010627;28;19920;-72
2021/10/08 08:37:29;;;;;;;;;;;;;;;12.49;71.45;101007.03;5010724;28;19960;-74
2021/10/08 08:39:54;;;;;;;;;;;;;;;12.74;70.01;101004.31;5001940;28;19945;-72
2021/10/08 08:42:20;;;;;;;;;;;;;;;13.00;69.52;101011.25;5008745;28;19917;-72
2021/10/08 08:44:46;;;;;;;;;;;;;;;13.29;68.59;101007.44;5005028;28;20360;-72
2021/10/08 08:47:17;;;;;;;;;;;;;;;13.70;67.42;101007.50;5008598;28;19917;-72
2021/10/08 08:49:43;;;;;;;;;;;;;;;14.24;66.20;101010.47;5008271;28;19917;-73
2021/10/08 08:52:09;;;;;;;;;;;;;;;15.00;64.29;101006.06;5010453;28;20059;-72
2021/10/08 08:54:34;;;;;;;;;;;;;;;16.00;58.63;100998.47;5001031;28;19992;-71
2021/10/08 08:57:00;;;;;;;;;;;;;;;16.82;56.39;100990.47;4992274;28;20012;-71
2021/10/08 08:59:25;;;;;;;;;;;;;;;17.32;53.86;101000.03;5010948;28;19940;-72
2021/10/08 09:02:01;;;;;;;;;;;;;;;18.17;51.27;100997.72;4992885;28;19944;-74
2021/10/08 09:04:28;;;;;;;;;;;;;;;18.94;48.97;100996.41;5008346;28;20283;-73
2021/10/08 09:06:54;;;;;;;;;;;;;;;19.56;47.44;100997.69;5008378;28;19913;-73
2021/10/08 09:09:20;;;;;;;;;;;;;;;20.32;46.06;100992.44;5009374;28;19917;-71
2021/10/08 09:11:46;;;;;;;;;;;;;;;20.92;44.69;100989.97;5008603;28;20075;-73
2021/10/08 09:14:20;;;;;;;;;;;;;;;21.46;42.34;100997.59;5009605;28;19921;-73
2021/10/08 09:17:04;;;;;;;;;;;;;;;21.64;42.00;100995.34;5007095;28;19914;-74
2021/10/08 09:19:46;;;;;;;;;;;;;;;21.97;41.25;100985.66;5008984;28;19917;-74
2021/10/08 09:22:12;;;;;;;;;;;;;;;22.20;40.55;100992.81;5007956;28;20368;-73
2021/10/08 09:24:37;;;;;;;;;;;;;;;22.35;40.51;100990.75;5009750;28;20004;-73
2021/10/08 09:27:09;;;;;;;;;;;;;;;22.29;39.72;100986.69;5009149;28;20012;-72
2021/10/08 09:29:34;;;;;;;;;;;;;;;22.15;39.86;100991.41;5023832;28;19913;-72
2021/10/08 09:31:59;;;;;;;;;;;;;;;22.08;39.63;100993.75;5008127;28;19925;-76
2021/10/08 09:34:25;;;;;;;;;;;;;;;22.25;40.08;100987.06;5008509;28;19914;-72
2021/10/08 09:36:57;;;;;;;;;;;;;;;22.68;39.49;100983.63;5007737;28;19920;-73
2021/10/08 09:39:27;;;;;;;;;;;;;;;23.19;38.49;100983.03;5008932;28;19913;-73
2021/10/08 09:41:57;;;;;;;;;;;;;;;23.55;38.10;100984.50;5009607;28;19920;-73
2021/10/08 09:44:23;;;;;;;;;;;;;;;23.07;38.39;100984.91;5009864;28;19921;-73
2021/10/08 09:46:48;;;;;;;;;;;;;;;23.17;38.73;100981.47;5009620;28;19914;-73
2021/10/08 09:49:21;;;;;;;;;;;;;;;23.45;37.48;100986.22;5008735;28;19925;-73
2021/10/08 09:51:46;;;;;;;;;;;;;;;23.67;37.23;100977.19;5009747;28;19913;-72
2021/10/08 09:54:11;;;;;;;;;;;;;;;23.48;37.29;100975.22;5009475;28;19920;-72
2021/10/08 09:56:39;;;;;;;;;;;;;;;23.71;37.01;100983.19;5009192;28;19913;-73
2021/10/08 09:59:10;;;;;;;;;;;;;;;24.01;36.30;100982.41;5009241;28;19913;-71
2021/10/08 10:01:37;;;;;;;;;;;;;;;24.08;36.37;100978.19;5009473;28;19924;-71
2021/10/08 10:04:04;;;;;;;;;;;;;;;24.24;36.17;100984.91;5008152;28;20353;-74
2021/10/08 10:06:30;;;;;;;;;;;;;;;24.67;35.71;100981.16;5009828;28;19988;-72
2021/10/08 10:08:55;;;;;;;;;;;;;;;24.63;35.38;100981.41;5009969;28;19917;-72
2021/10/08 10:11:21;;;;;;;;;;;;;;;24.14;36.19;100992.94;5008670;28;19917;-73
2021/10/08 10:13:48;;;;;;;;;;;;;;;24.18;36.29;100989.84;5009954;28;19979;-73
2021/10/08 10:16:14;;;;;;;;;;;;;;;23.92;36.31;100983.19;5009458;28;19914;-72
2021/10/08 10:18:39;;;;;;;;;;;;;;;23.68;36.29;100986.13;5009299;28;19918;-72
2021/10/08 10:21:05;;;;;;;;;;;;;;;22.86;37.81;100990.16;5008512;28;20366;-72
2021/10/08 10:23:31;;;;;;;;;;;;;;;22.76;38.19;100983.84;5010613;28;19913;-72
2021/10/08 10:25:56;;;;;;;;;;;;;;;22.25;39.29;100979.88;5022696;28;19917;-71
2021/10/08 10:28:21;;;;;;;;;;;;;;;21.58;41.30;100987.75;5023700;28;19913;-71
2021/10/08 10:30:48;;;;;;;;;;;;;;;21.22;41.64;100979.66;5022490;28;19913;-73
2021/10/08 10:33:14;;;;;;;;;;;;;;;20.91;42.46;100974.88;5019880;28;19917;-73
2021/10/08 10:35:47;;;;;;;;;;;;;;;20.67;43.76;100978.34;5020432;28;19993;-72
2021/10/08 10:38:32;;;;;;;;;;;;;;;20.11;43.99;100980.56;5023476;28;19996;-73
2021/10/08 10:41:09;;;;;;;;;;;;;;;19.84;45.04;100978.84;5013923;28;19917;-73
2021/10/08 10:43:37;;;;;;;;;;;;;;;19.28;45.78;100987.03;5026266;28;19945;-72
2021/10/08 10:46:23;;;;;;;;;;;;;;;19.14;46.59;100980.91;5019824;28;19924;-72
2021/10/08 10:49:15;;;;;;;;;;;;;;;18.81;46.78;100983.00;5016331;28;19914;-73
2021/10/08 10:52:01;;;;;;;;;;;;;;;18.66;47.75;100979.47;5012041;28;19913;-72
2021/10/08 10:54:39;;;;;;;;;;;;;;;18.56;48.20;100980.16;5013757;28;20284;-72
2021/10/08 10:57:04;;;;;;;;;;;;;;;18.42;49.02;100979.19;5011331;28;19977;-72
2021/10/08 10:59:30;;;;;;;;;;;;;;;18.21;49.77;100977.88;5027431;28;19945;-72
2021/10/08 11:04:34;;;;;;;;;;;;;;;17.72;49.25;100983.50;5012133;28;20272;-71
2021/10/08 11:07:03;;;;;;;;;;;;;;;17.74;49.39;100979.78;5013132;28;20388;-74
2021/10/08 11:09:28;;;;;;;;;;;;;;;17.53;49.76;100970.41;5012159;28;19918;-73
2021/10/08 11:12:12;;;;;;;;;;;;;;;17.60;50.34;100974.44;5012314;28;19917;-73
2021/10/08 11:14:37;;;;;;;;;;;;;;;17.47;50.21;100970.78;5012510;28;19913;-73
2021/10/08 11:17:22;;;;;;;;;;;;;;;17.26;49.82;100964.91;5011987;28;19927;-73
2021/10/08 11:19:49;;;;;;;;;;;;;;;17.38;49.38;100956.19;5009414;28;19967;-72
2021/10/08 11:22:14;;;;;;;;;;;;;;;17.35;49.33;100959.00;5011359;28;19913;-72
2021/10/08 11:24:39;;;;;;;;;;;;;;;17.42;48.80;100963.03;5026672;28;19917;-73
2021/10/08 11:27:05;;;;;;;;;;;;;;;17.41;47.96;100957.81;5010839;28;19913;-71
2021/10/08 11:29:32;;;;;;;;;;;;;;;17.42;49.48;100962.19;5010934;28;19913;-72
2021/10/08 11:32:07;;;;;;;;;;;;;;;17.49;48.79;100952.88;5010869;28;20257;-72
2021/10/08 11:34:33;;;;;;;;;;;;;;;17.56;48.50;100955.09;5011628;28;19913;-73
2021/10/08 11:36:59;;;;;;;;;;;;;;;17.51;48.87;100956.31;5007817;28;19928;-73
2021/10/08 11:39:25;;;;;;;;;;;;;;;17.44;48.84;100946.97;5010356;28;20004;-71
2021/10/08 11:42:20;;;;;;;;;;;;;;;17.54;48.62;100942.78;5010885;28;20008;-72
2021/10/08 11:44:58;;;;;;;;;;;;;;;17.54;48.74;100937.47;5009357;28;19920;-72
2021/10/08 11:47:30;;;;;;;;;;;;;;;17.41;48.29;100934.69;5011189;28;19956;-74
2021/10/08 11:52:40;;;;;;;;;;;;;;;17.36;48.82;100940.28;5011099;28;19940;-72
2021/10/08 11:55:06;;;;;;;;;;;;;;;17.44;48.86;100936.31;5009385;28;20412;-74
2021/10/08 11:57:44;;;;;;;;;;;;;;;17.32;48.35;100936.06;5011177;28;19913;-71
2021/10/08 12:00:10;;;;;;;;;;;;;;;17.42;48.67;100930.19;5010587;28;19925;-74
2021/10/08 12:02:35;;;;;;;;;;;;;;;17.47;48.03;100931.63;4993356;28;19971;-72
2021/10/08 12:05:03;;;;;;;;;;;;;;;17.28;47.87;100931.88;5011309;28;19913;-73
2021/10/08 12:07:38;;;;;;;;;;;;;;;17.22;47.87;100929.56;5011067;28;19917;-72
2021/10/08 12:10:07;;;;;;;;;;;;;;;17.07;48.56;100920.66;5010330;28;20424;-72
2021/10/08 12:12:32;;;;;;;;;;;;;;;17.05;48.76;100924.34;5008665;28;19924;-73
2021/10/08 12:14:57;;;;;;;;;;;;;;;17.15;48.73;100922.88;5010741;28;19913;-72
2021/10/08 12:17:22;;;;;;;;;;;;;;;17.24;49.25;100917.00;5010811;28;19920;-72
2021/10/08 12:19:49;;;;;;;;;;;;;;;17.29;48.50;100920.25;5009204;28;20393;-73
2021/10/08 12:22:20;;;;;;;;;;;;;;;17.25;49.31;100918.72;5010985;28;20353;-73
2021/10/08 12:24:46;;;;;;;;;;;;;;;17.28;50.11;100912.38;5010853;28;20380;-73
2021/10/08 12:27:12;;;;;;;;;;;;;;;17.33;50.42;100916.47;5010120;28;19963;-74
2021/10/08 12:29:50;;;;;;;;;;;;;;;17.36;51.26;100918.09;5008801;28;20372;-73
2021/10/08 12:32:16;;;;;;;;;;;;;;;17.32;51.58;100914.75;5010366;28;19939;-74
2021/10/08 12:34:44;;;;;;;;;;;;;;;17.32;49.88;100909.41;5010267;28;19917;-72
2021/10/08 12:37:11;;;;;;;;;;;;;;;17.45;48.63;100906.00;5010508;28;19992;-73
2021/10/08 12:39:39;;;;;;;;;;;;;;;17.30;50.54;100898.00;5009637;28;19913;-73
2021/10/08 12:42:10;;;;;;;;;;;;;;;17.22;51.19;100899.41;5009281;28;19920;-72
2021/10/08 12:44:44;;;;;;;;;;;;;;;17.24;50.16;100887.69;5010286;28;19913;-73
2021/10/08 12:47:12;;;;;;;;;;;;;;;17.35;49.33;100889.72;5010624;28;19917;-74
2021/10/08 12:49:44;;;;;;;;;;;;;;;17.27;50.88;100889.31;5007919;28;19913;-74